sensor_id;sensor_type;location;lat;lon;timestamp;P1;durP1;ratioP1;P2;durP2;ratioP2
38683;SDS011;24910;53.248;-6.134;2023-04-28T00:00:25;66.68;;;32.10;;
38683;SDS011;24910;53.248;-6.134;2023-04-28T00:02:55;64.97;;;31.65;;
38683;SDS011;24910;53.248;-6.134;2023-04-28T00:05:24;71.00;;;32.55;;
38683;SDS011;24910;53.248;-6.134;2023-04-28T00:07:55;64.20;;;31.23;;
38683;SDS011;24910;53.248;-6.134;2023-04-28T00:10:24;72.27;;;34.73;;
38683;SDS011;24910;53.248;-6.134;2023-04-28T00:12:53;72.20;;;33.55;;
38683;SDS011;24910;53.248;-6.134;2023-04-28T00:15:22;76.75;;;35.38;;
38683;SDS011;24910;53.248;-6.134;2023-04-28T00:17:52;75.50;;;35.45;;
38683;SDS011;24910;53.248;-6.134;2023-04-28T00:20:21;77.00;;;33.88;;
38683;SDS011;24910;53.248;-6.134;2023-04-28T00:22:50;77.63;;;36.03;;
38683;SDS011;24910;53.248;-6.134;2023-04-28T00:25:21;82.70;;;35.90;;
38683;SDS011;24910;53.248;-6.134;2023-04-28T00:27:50;73.50;;;33.83;;
38683;SDS011;24910;53.248;-6.134;2023-04-28T00:30:19;71.07;;;32.88;;
38683;SDS011;24910;53.248;-6.134;2023-04-28T00:32:48;74.95;;;34.15;;
38683;SDS011;24910;53.248;-6.134;2023-04-28T00:35:18;74.07;;;34.50;;
38683;SDS011;24910;53.248;-6.134;2023-04-28T00:37:47;72.32;;;32.25;;
38683;SDS011;24910;53.248;-6.134;2023-04-28T00:40:16;76.68;;;35.90;;
38683;SDS011;24910;53.248;-6.134;2023-04-28T00:42:47;78.75;;;32.97;;
38683;SDS011;24910;53.248;-6.134;2023-04-28T00:45:16;70.32;;;32.35;;
38683;SDS011;24910;53.248;-6.134;2023-04-28T00:47:46;69.53;;;31.10;;
38683;SDS011;24910;53.248;-6.134;2023-04-28T00:50:15;79.47;;;32.78;;
38683;SDS011;24910;53.248;-6.134;2023-04-28T00:52:44;61.80;;;29.58;;
38683;SDS011;24910;53.248;-6.134;2023-04-28T00:55:14;59.80;;;29.15;;
38683;SDS011;24910;53.248;-6.134;2023-04-28T00:57:44;59.88;;;27.48;;
38683;SDS011;24910;53.248;-6.134;2023-04-28T01:02:44;56.63;;;25.00;;
38683;SDS011;24910;53.248;-6.134;2023-04-28T01:05:13;55.22;;;25.85;;
38683;SDS011;24910;53.248;-6.134;2023-04-28T01:07:44;59.92;;;26.50;;
38683;SDS011;24910;53.248;-6.134;2023-04-28T01:10:13;49.33;;;25.13;;
38683;SDS011;24910;53.248;-6.134;2023-04-28T01:12:43;52.85;;;24.60;;
38683;SDS011;24910;53.248;-6.134;2023-04-28T01:15:15;48.63;;;24.38;;
38683;SDS011;24910;53.248;-6.134;2023-04-28T01:17:46;49.40;;;24.02;;
38683;SDS011;24910;53.248;-6.134;2023-04-28T01:20:16;54.90;;;25.33;;
38683;SDS011;24910;53.248;-6.134;2023-04-28T01:22:45;49.58;;;24.05;;
38683;SDS011;24910;53.248;-6.134;2023-04-28T01:25:15;50.97;;;24.55;;
38683;SDS011;24910;53.248;-6.134;2023-04-28T01:27:45;57.13;;;24.35;;
38683;SDS011;24910;53.248;-6.134;2023-04-28T01:30:14;53.72;;;24.35;;
38683;SDS011;24910;53.248;-6.134;2023-04-28T01:32:43;52.17;;;24.67;;
38683;SDS011;24910;53.248;-6.134;2023-04-28T01:35:12;46.60;;;23.08;;
38683;SDS011;24910;53.248;-6.134;2023-04-28T01:37:41;45.45;;;24.05;;
38683;SDS011;24910;53.248;-6.134;2023-04-28T01:40:11;53.53;;;24.40;;
38683;SDS011;24910;53.248;-6.134;2023-04-28T01:42:42;57.53;;;27.45;;
38683;SDS011;24910;53.248;-6.134;2023-04-28T01:45:11;59.07;;;25.13;;
38683;SDS011;24910;53.248;-6.134;2023-04-28T01:47:40;52.13;;;24.08;;
38683;SDS011;24910;53.248;-6.134;2023-04-28T01:50:09;58.63;;;23.80;;
38683;SDS011;24910;53.248;-6.134;2023-04-28T01:52:38;57.00;;;26.23;;
38683;SDS011;24910;53.248;-6.134;2023-04-28T01:55:07;56.40;;;25.88;;
38683;SDS011;24910;53.248;-6.134;2023-04-28T01:57:37;62.40;;;26.83;;
38683;SDS011;24910;53.248;-6.134;2023-04-28T02:00:09;60.65;;;25.85;;
38683;SDS011;24910;53.248;-6.134;2023-04-28T02:02:48;64.90;;;25.35;;
38683;SDS011;24910;53.248;-6.134;2023-04-28T02:05:17;70.38;;;26.10;;
38683;SDS011;24910;53.248;-6.134;2023-04-28T02:07:47;63.53;;;25.33;;
38683;SDS011;24910;53.248;-6.134;2023-04-28T02:10:16;62.40;;;25.70;;
38683;SDS011;24910;53.248;-6.134;2023-04-28T02:12:45;58.63;;;26.17;;
38683;SDS011;24910;53.248;-6.134;2023-04-28T02:15:17;63.63;;;25.83;;
38683;SDS011;24910;53.248;-6.134;2023-04-28T02:17:46;66.75;;;27.10;;
38683;SDS011;24910;53.248;-6.134;2023-04-28T02:20:15;61.45;;;25.70;;
38683;SDS011;24910;53.248;-6.134;2023-04-28T02:22:44;66.93;;;25.85;;
38683;SDS011;24910;53.248;-6.134;2023-04-28T02:25:13;60.33;;;25.77;;
38683;SDS011;24910;53.248;-6.134;2023-04-28T02:27:43;69.50;;;27.30;;
38683;SDS011;24910;53.248;-6.134;2023-04-28T02:30:12;74.68;;;27.98;;
38683;SDS011;24910;53.248;-6.134;2023-04-28T02:32:42;71.63;;;27.95;;
38683;SDS011;24910;53.248;-6.134;2023-04-28T02:35:14;67.68;;;27.27;;
38683;SDS011;24910;53.248;-6.134;2023-04-28T02:37:43;73.10;;;28.95;;
38683;SDS011;24910;53.248;-6.134;2023-04-28T02:40:13;75.75;;;28.30;;
38683;SDS011;24910;53.248;-6.134;2023-04-28T02:42:42;76.30;;;29.25;;
38683;SDS011;24910;53.248;-6.134;2023-04-28T02:45:11;79.35;;;28.10;;
38683;SDS011;24910;53.248;-6.134;2023-04-28T02:47:40;93.65;;;31.45;;
38683;SDS011;24910;53.248;-6.134;2023-04-28T02:50:10;89.85;;;32.33;;
38683;SDS011;24910;53.248;-6.134;2023-04-28T02:52:40;86.83;;;33.97;;
38683;SDS011;24910;53.248;-6.134;2023-04-28T02:55:09;88.97;;;35.65;;
38683;SDS011;24910;53.248;-6.134;2023-04-28T02:57:38;82.75;;;33.65;;
38683;SDS011;24910;53.248;-6.134;2023-04-28T03:00:07;95.95;;;34.50;;
38683;SDS011;24910;53.248;-6.134;2023-04-28T03:02:44;90.93;;;34.28;;
38683;SDS011;24910;53.248;-6.134;2023-04-28T03:05:14;85.72;;;33.72;;
38683;SDS011;24910;53.248;-6.134;2023-04-28T03:07:44;97.25;;;35.40;;
38683;SDS011;24910;53.248;-6.134;2023-04-28T03:10:14;96.07;;;34.72;;
38683;SDS011;24910;53.248;-6.134;2023-04-28T03:12:43;81.43;;;31.90;;
38683;SDS011;24910;53.248;-6.134;2023-04-28T03:15:12;79.57;;;32.35;;
38683;SDS011;24910;53.248;-6.134;2023-04-28T03:17:41;77.20;;;30.50;;
38683;SDS011;24910;53.248;-6.134;2023-04-28T03:20:11;70.60;;;29.00;;
38683;SDS011;24910;53.248;-6.134;2023-04-28T03:22:42;73.35;;;29.60;;
38683;SDS011;24910;53.248;-6.134;2023-04-28T03:25:11;79.20;;;30.63;;
38683;SDS011;24910;53.248;-6.134;2023-04-28T03:27:50;77.38;;;31.48;;
38683;SDS011;24910;53.248;-6.134;2023-04-28T03:30:20;84.03;;;32.63;;
38683;SDS011;24910;53.248;-6.134;2023-04-28T03:32:49;82.80;;;31.88;;
38683;SDS011;24910;53.248;-6.134;2023-04-28T03:35:18;83.28;;;32.53;;
38683;SDS011;24910;53.248;-6.134;2023-04-28T03:37:49;96.85;;;35.92;;
38683;SDS011;24910;53.248;-6.134;2023-04-28T03:40:18;87.05;;;34.53;;
38683;SDS011;24910;53.248;-6.134;2023-04-28T03:43:06;93.13;;;35.53;;
38683;SDS011;24910;53.248;-6.134;2023-04-28T03:45:40;87.22;;;34.38;;
38683;SDS011;24910;53.248;-6.134;2023-04-28T03:48:09;96.20;;;35.50;;
38683;SDS011;24910;53.248;-6.134;2023-04-28T03:50:38;92.53;;;35.42;;
38683;SDS011;24910;53.248;-6.134;2023-04-28T03:53:10;91.03;;;36.05;;
38683;SDS011;24910;53.248;-6.134;2023-04-28T03:55:39;93.13;;;35.47;;
38683;SDS011;24910;53.248;-6.134;2023-04-28T03:58:08;95.60;;;37.13;;
38683;SDS011;24910;53.248;-6.134;2023-04-28T04:00:37;93.65;;;37.00;;
38683;SDS011;24910;53.248;-6.134;2023-04-28T04:03:06;105.93;;;37.42;;
38683;SDS011;24910;53.248;-6.134;2023-04-28T04:05:35;104.68;;;38.38;;
38683;SDS011;24910;53.248;-6.134;2023-04-28T04:08:06;115.97;;;38.17;;
38683;SDS011;24910;53.248;-6.134;2023-04-28T04:10:37;101.78;;;35.95;;
38683;SDS011;24910;53.248;-6.134;2023-04-28T04:13:06;108.00;;;37.93;;
38683;SDS011;24910;53.248;-6.134;2023-04-28T04:15:35;109.05;;;35.65;;
38683;SDS011;24910;53.248;-6.134;2023-04-28T04:18:05;110.03;;;36.85;;
38683;SDS011;24910;53.248;-6.134;2023-04-28T04:20:53;113.15;;;37.13;;
38683;SDS011;24910;53.248;-6.134;2023-04-28T04:23:23;101.20;;;36.30;;
38683;SDS011;24910;53.248;-6.134;2023-04-28T04:25:54;101.30;;;35.13;;
38683;SDS011;24910;53.248;-6.134;2023-04-28T04:28:23;104.13;;;34.83;;
38683;SDS011;24910;53.248;-6.134;2023-04-28T04:30:52;100.85;;;34.65;;
38683;SDS011;24910;53.248;-6.134;2023-04-28T04:33:21;112.55;;;34.85;;
38683;SDS011;24910;53.248;-6.134;2023-04-28T04:35:51;103.82;;;34.90;;
38683;SDS011;24910;53.248;-6.134;2023-04-28T04:38:21;100.50;;;34.80;;
38683;SDS011;24910;53.248;-6.134;2023-04-28T04:40:51;100.25;;;34.00;;
38683;SDS011;24910;53.248;-6.134;2023-04-28T04:43:21;97.18;;;34.38;;
38683;SDS011;24910;53.248;-6.134;2023-04-28T04:45:50;96.10;;;34.47;;
38683;SDS011;24910;53.248;-6.134;2023-04-28T04:48:19;102.78;;;35.20;;
38683;SDS011;24910;53.248;-6.134;2023-04-28T04:50:48;99.65;;;35.30;;
38683;SDS011;24910;53.248;-6.134;2023-04-28T04:53:17;89.20;;;32.85;;
38683;SDS011;24910;53.248;-6.134;2023-04-28T04:55:46;92.93;;;35.22;;
38683;SDS011;24910;53.248;-6.134;2023-04-28T04:58:16;95.35;;;33.90;;
38683;SDS011;24910;53.248;-6.134;2023-04-28T05:01:15;90.65;;;33.00;;
38683;SDS011;24910;53.248;-6.134;2023-04-28T05:03:45;105.70;;;34.27;;
38683;SDS011;24910;53.248;-6.134;2023-04-28T05:06:14;102.20;;;34.17;;
38683;SDS011;24910;53.248;-6.134;2023-04-28T05:08:45;98.35;;;34.78;;
38683;SDS011;24910;53.248;-6.134;2023-04-28T05:11:15;100.10;;;34.55;;
38683;SDS011;24910;53.248;-6.134;2023-04-28T05:13:44;92.78;;;34.05;;
38683;SDS011;24910;53.248;-6.134;2023-04-28T05:16:13;92.45;;;33.20;;
38683;SDS011;24910;53.248;-6.134;2023-04-28T05:19:10;96.75;;;35.85;;
38683;SDS011;24910;53.248;-6.134;2023-04-28T05:21:39;112.18;;;37.88;;
38683;SDS011;24910;53.248;-6.134;2023-04-28T05:24:08;105.40;;;35.80;;
38683;SDS011;24910;53.248;-6.134;2023-04-28T05:26:37;98.72;;;36.72;;
38683;SDS011;24910;53.248;-6.134;2023-04-28T05:31:38;102.03;;;37.97;;
38683;SDS011;24910;53.248;-6.134;2023-04-28T05:34:09;98.23;;;37.03;;
38683;SDS011;24910;53.248;-6.134;2023-04-28T05:36:39;107.15;;;37.92;;
38683;SDS011;24910;53.248;-6.134;2023-04-28T05:39:10;99.68;;;36.88;;
38683;SDS011;24910;53.248;-6.134;2023-04-28T05:41:40;100.15;;;35.38;;
38683;SDS011;24910;53.248;-6.134;2023-04-28T05:44:10;98.30;;;37.35;;
38683;SDS011;24910;53.248;-6.134;2023-04-28T05:46:39;89.18;;;37.45;;
38683;SDS011;24910;53.248;-6.134;2023-04-28T05:49:10;97.82;;;37.17;;
38683;SDS011;24910;53.248;-6.134;2023-04-28T05:51:39;98.80;;;36.20;;
38683;SDS011;24910;53.248;-6.134;2023-04-28T05:54:08;105.72;;;38.58;;
38683;SDS011;24910;53.248;-6.134;2023-04-28T05:56:43;91.90;;;36.35;;
38683;SDS011;24910;53.248;-6.134;2023-04-28T05:59:12;100.82;;;37.50;;
38683;SDS011;24910;53.248;-6.134;2023-04-28T06:01:42;100.07;;;36.30;;
38683;SDS011;24910;53.248;-6.134;2023-04-28T06:04:12;96.70;;;37.90;;
38683;SDS011;24910;53.248;-6.134;2023-04-28T06:06:42;103.97;;;37.60;;
38683;SDS011;24910;53.248;-6.134;2023-04-28T06:09:11;98.93;;;37.90;;
38683;SDS011;24910;53.248;-6.134;2023-04-28T06:11:41;86.00;;;35.88;;
38683;SDS011;24910;53.248;-6.134;2023-04-28T06:14:10;99.80;;;37.75;;
38683;SDS011;24910;53.248;-6.134;2023-04-28T06:16:41;91.45;;;36.35;;
38683;SDS011;24910;53.248;-6.134;2023-04-28T06:19:10;96.40;;;38.60;;
38683;SDS011;24910;53.248;-6.134;2023-04-28T06:21:43;92.35;;;37.38;;
38683;SDS011;24910;53.248;-6.134;2023-04-28T06:24:13;89.93;;;37.15;;
38683;SDS011;24910;53.248;-6.134;2023-04-28T06:26:52;91.45;;;36.20;;
38683;SDS011;24910;53.248;-6.134;2023-04-28T06:29:21;90.45;;;35.80;;
38683;SDS011;24910;53.248;-6.134;2023-04-28T06:31:51;86.57;;;35.30;;
38683;SDS011;24910;53.248;-6.134;2023-04-28T06:34:25;87.47;;;36.10;;
38683;SDS011;24910;53.248;-6.134;2023-04-28T06:36:57;88.50;;;34.83;;
38683;SDS011;24910;53.248;-6.134;2023-04-28T06:39:27;85.38;;;36.03;;
38683;SDS011;24910;53.248;-6.134;2023-04-28T06:41:56;92.15;;;35.67;;
38683;SDS011;24910;53.248;-6.134;2023-04-28T06:44:27;89.32;;;36.38;;
38683;SDS011;24910;53.248;-6.134;2023-04-28T06:46:56;89.57;;;34.67;;
38683;SDS011;24910;53.248;-6.134;2023-04-28T06:49:27;90.32;;;35.00;;
38683;SDS011;24910;53.248;-6.134;2023-04-28T06:52:00;83.72;;;33.33;;
38683;SDS011;24910;53.248;-6.134;2023-04-28T06:54:29;81.63;;;33.15;;
38683;SDS011;24910;53.248;-6.134;2023-04-28T06:56:58;80.32;;;34.22;;
38683;SDS011;24910;53.248;-6.134;2023-04-28T06:59:28;79.93;;;32.10;;
38683;SDS011;24910;53.248;-6.134;2023-04-28T07:01:58;80.88;;;33.00;;
38683;SDS011;24910;53.248;-6.134;2023-04-28T07:04:29;75.00;;;33.08;;
38683;SDS011;24910;53.248;-6.134;2023-04-28T07:06:58;79.23;;;32.90;;
38683;SDS011;24910;53.248;-6.134;2023-04-28T07:09:27;71.55;;;30.98;;
38683;SDS011;24910;53.248;-6.134;2023-04-28T07:11:57;74.45;;;31.48;;
38683;SDS011;24910;53.248;-6.134;2023-04-28T07:14:26;71.63;;;31.48;;
38683;SDS011;24910;53.248;-6.134;2023-04-28T07:16:55;82.72;;;34.53;;
38683;SDS011;24910;53.248;-6.134;2023-04-28T07:19:25;75.55;;;32.00;;
38683;SDS011;24910;53.248;-6.134;2023-04-28T07:21:55;72.55;;;32.08;;
38683;SDS011;24910;53.248;-6.134;2023-04-28T07:24:24;71.60;;;31.83;;
38683;SDS011;24910;53.248;-6.134;2023-04-28T07:26:53;71.80;;;31.38;;
38683;SDS011;24910;53.248;-6.134;2023-04-28T07:29:23;74.65;;;31.13;;
38683;SDS011;24910;53.248;-6.134;2023-04-28T07:31:54;67.35;;;28.70;;
38683;SDS011;24910;53.248;-6.134;2023-04-28T07:34:24;65.00;;;28.77;;
38683;SDS011;24910;53.248;-6.134;2023-04-28T07:36:55;60.00;;;27.33;;
38683;SDS011;24910;53.248;-6.134;2023-04-28T07:39:24;62.75;;;27.67;;
38683;SDS011;24910;53.248;-6.134;2023-04-28T07:41:53;55.72;;;26.83;;
38683;SDS011;24910;53.248;-6.134;2023-04-28T07:44:24;53.30;;;25.88;;
38683;SDS011;24910;53.248;-6.134;2023-04-28T07:46:53;53.97;;;25.90;;
38683;SDS011;24910;53.248;-6.134;2023-04-28T07:49:22;50.67;;;24.75;;
38683;SDS011;24910;53.248;-6.134;2023-04-28T07:51:51;46.08;;;23.02;;
38683;SDS011;24910;53.248;-6.134;2023-04-28T07:54:23;44.33;;;21.80;;
38683;SDS011;24910;53.248;-6.134;2023-04-28T07:56:52;46.42;;;22.50;;
38683;SDS011;24910;53.248;-6.134;2023-04-28T07:59:24;41.53;;;20.38;;
38683;SDS011;24910;53.248;-6.134;2023-04-28T08:01:53;41.60;;;21.45;;
38683;SDS011;24910;53.248;-6.134;2023-04-28T08:04:23;41.20;;;21.50;;
38683;SDS011;24910;53.248;-6.134;2023-04-28T08:06:53;72.10;;;31.20;;
38683;SDS011;24910;53.248;-6.134;2023-04-28T08:09:23;75.65;;;32.00;;
38683;SDS011;24910;53.248;-6.134;2023-04-28T08:11:52;80.30;;;33.63;;
38683;SDS011;24910;53.248;-6.134;2023-04-28T08:14:21;82.53;;;33.28;;
38683;SDS011;24910;53.248;-6.134;2023-04-28T08:16:51;85.82;;;34.88;;
38683;SDS011;24910;53.248;-6.134;2023-04-28T08:19:20;81.15;;;35.42;;
38683;SDS011;24910;53.248;-6.134;2023-04-28T08:21:49;87.43;;;35.10;;
38683;SDS011;24910;53.248;-6.134;2023-04-28T08:24:18;85.28;;;35.47;;
38683;SDS011;24910;53.248;-6.134;2023-04-28T08:26:48;83.18;;;35.25;;
38683;SDS011;24910;53.248;-6.134;2023-04-28T08:29:17;77.03;;;33.40;;
38683;SDS011;24910;53.248;-6.134;2023-04-28T08:31:46;81.38;;;33.30;;
38683;SDS011;24910;53.248;-6.134;2023-04-28T08:34:15;81.80;;;34.40;;
38683;SDS011;24910;53.248;-6.134;2023-04-28T08:36:45;75.43;;;35.10;;
38683;SDS011;24910;53.248;-6.134;2023-04-28T08:39:14;81.82;;;33.97;;
38683;SDS011;24910;53.248;-6.134;2023-04-28T08:41:44;81.82;;;34.72;;
38683;SDS011;24910;53.248;-6.134;2023-04-28T08:44:14;83.75;;;33.35;;
38683;SDS011;24910;53.248;-6.134;2023-04-28T08:46:45;77.10;;;34.65;;
38683;SDS011;24910;53.248;-6.134;2023-04-28T08:49:17;84.57;;;34.83;;
38683;SDS011;24910;53.248;-6.134;2023-04-28T08:51:49;84.15;;;34.60;;
38683;SDS011;24910;53.248;-6.134;2023-04-28T08:54:23;88.25;;;34.20;;
38683;SDS011;24910;53.248;-6.134;2023-04-28T08:56:57;101.43;;;35.88;;
38683;SDS011;24910;53.248;-6.134;2023-04-28T08:59:29;102.30;;;37.17;;
38683;SDS011;24910;53.248;-6.134;2023-04-28T09:04:27;104.32;;;37.10;;
38683;SDS011;24910;53.248;-6.134;2023-04-28T09:06:57;109.70;;;38.90;;
38683;SDS011;24910;53.248;-6.134;2023-04-28T09:09:26;105.82;;;37.63;;
38683;SDS011;24910;53.248;-6.134;2023-04-28T09:12:03;111.93;;;39.08;;
38683;SDS011;24910;53.248;-6.134;2023-04-28T09:14:34;111.88;;;39.38;;
38683;SDS011;24910;53.248;-6.134;2023-04-28T09:17:08;116.30;;;38.75;;
38683;SDS011;24910;53.248;-6.134;2023-04-28T09:19:39;131.80;;;38.08;;
38683;SDS011;24910;53.248;-6.134;2023-04-28T09:22:09;99.07;;;36.53;;
38683;SDS011;24910;53.248;-6.134;2023-04-28T09:24:52;97.35;;;35.85;;
38683;SDS011;24910;53.248;-6.134;2023-04-28T09:27:25;100.70;;;35.60;;
38683;SDS011;24910;53.248;-6.134;2023-04-28T09:29:56;95.18;;;34.63;;
38683;SDS011;24910;53.248;-6.134;2023-04-28T09:32:25;96.03;;;35.23;;
38683;SDS011;24910;53.248;-6.134;2023-04-28T09:34:55;100.07;;;36.28;;
38683;SDS011;24910;53.248;-6.134;2023-04-28T09:37:26;89.90;;;36.72;;
38683;SDS011;24910;53.248;-6.134;2023-04-28T09:42:31;83.90;;;33.97;;
38683;SDS011;24910;53.248;-6.134;2023-04-28T09:45:03;74.40;;;31.55;;
38683;SDS011;24910;53.248;-6.134;2023-04-28T09:47:34;80.95;;;32.15;;
38683;SDS011;24910;53.248;-6.134;2023-04-28T09:52:35;64.82;;;28.58;;
38683;SDS011;24910;53.248;-6.134;2023-04-28T09:55:05;67.32;;;28.95;;
38683;SDS011;24910;53.248;-6.134;2023-04-28T09:57:35;63.05;;;27.52;;
38683;SDS011;24910;53.248;-6.134;2023-04-28T10:00:07;68.10;;;30.00;;
38683;SDS011;24910;53.248;-6.134;2023-04-28T10:02:37;66.47;;;29.70;;
38683;SDS011;24910;53.248;-6.134;2023-04-28T10:05:10;67.18;;;28.92;;
38683;SDS011;24910;53.248;-6.134;2023-04-28T10:07:40;60.92;;;27.55;;
38683;SDS011;24910;53.248;-6.134;2023-04-28T10:10:09;59.63;;;27.58;;
38683;SDS011;24910;53.248;-6.134;2023-04-28T10:12:41;89.45;;;32.15;;
38683;SDS011;24910;53.248;-6.134;2023-04-28T10:15:12;59.88;;;26.70;;
38683;SDS011;24910;53.248;-6.134;2023-04-28T10:17:41;57.13;;;26.52;;
38683;SDS011;24910;53.248;-6.134;2023-04-28T10:20:10;58.70;;;26.42;;
38683;SDS011;24910;53.248;-6.134;2023-04-28T10:22:46;67.30;;;26.98;;
38683;SDS011;24910;53.248;-6.134;2023-04-28T10:25:26;59.25;;;25.88;;
38683;SDS011;24910;53.248;-6.134;2023-04-28T10:27:58;58.03;;;24.25;;
38683;SDS011;24910;53.248;-6.134;2023-04-28T10:30:29;55.85;;;25.15;;
38683;SDS011;24910;53.248;-6.134;2023-04-28T10:35:53;56.45;;;24.77;;
38683;SDS011;24910;53.248;-6.134;2023-04-28T10:38:22;56.40;;;25.70;;
38683;SDS011;24910;53.248;-6.134;2023-04-28T10:40:51;50.13;;;24.08;;
38683;SDS011;24910;53.248;-6.134;2023-04-28T10:43:34;52.03;;;24.80;;
38683;SDS011;24910;53.248;-6.134;2023-04-28T10:46:10;52.83;;;25.40;;
38683;SDS011;24910;53.248;-6.134;2023-04-28T10:48:51;54.47;;;25.30;;
38683;SDS011;24910;53.248;-6.134;2023-04-28T10:51:28;57.63;;;27.27;;
38683;SDS011;24910;53.248;-6.134;2023-04-28T10:54:08;58.13;;;26.85;;
38683;SDS011;24910;53.248;-6.134;2023-04-28T10:59:48;49.08;;;25.00;;
38683;SDS011;24910;53.248;-6.134;2023-04-28T11:02:38;52.72;;;26.02;;
38683;SDS011;24910;53.248;-6.134;2023-04-28T11:05:14;48.10;;;24.58;;
38683;SDS011;24910;53.248;-6.134;2023-04-28T11:11:17;44.25;;;23.63;;
38683;SDS011;24910;53.248;-6.134;2023-04-28T11:13:47;44.25;;;22.33;;
38683;SDS011;24910;53.248;-6.134;2023-04-28T11:16:18;41.58;;;22.30;;
38683;SDS011;24910;53.248;-6.134;2023-04-28T11:18:54;42.60;;;22.52;;
38683;SDS011;24910;53.248;-6.134;2023-04-28T11:21:31;39.88;;;21.35;;
38683;SDS011;24910;53.248;-6.134;2023-04-28T11:24:00;36.95;;;20.95;;
38683;SDS011;24910;53.248;-6.134;2023-04-28T11:26:37;37.58;;;20.80;;
38683;SDS011;24910;53.248;-6.134;2023-04-28T11:29:06;36.65;;;19.92;;
38683;SDS011;24910;53.248;-6.134;2023-04-28T11:31:36;34.10;;;20.02;;
38683;SDS011;24910;53.248;-6.134;2023-04-28T11:34:08;38.17;;;19.70;;
38683;SDS011;24910;53.248;-6.134;2023-04-28T11:36:40;39.70;;;21.60;;
38683;SDS011;24910;53.248;-6.134;2023-04-28T11:39:10;41.85;;;22.50;;
38683;SDS011;24910;53.248;-6.134;2023-04-28T11:41:40;43.20;;;22.33;;
38683;SDS011;24910;53.248;-6.134;2023-04-28T11:44:10;42.67;;;22.95;;
38683;SDS011;24910;53.248;-6.134;2023-04-28T11:46:43;41.92;;;22.45;;
38683;SDS011;24910;53.248;-6.134;2023-04-28T11:49:18;41.75;;;23.50;;
38683;SDS011;24910;53.248;-6.134;2023-04-28T11:51:47;42.55;;;23.60;;
38683;SDS011;24910;53.248;-6.134;2023-04-28T11:54:20;38.35;;;21.75;;
38683;SDS011;24910;53.248;-6.134;2023-04-28T11:56:51;40.70;;;23.10;;
38683;SDS011;24910;53.248;-6.134;2023-04-28T11:59:24;35.40;;;21.55;;
38683;SDS011;24910;53.248;-6.134;2023-04-28T12:01:54;35.30;;;21.52;;
38683;SDS011;24910;53.248;-6.134;2023-04-28T12:04:27;37.88;;;22.17;;
38683;SDS011;24910;53.248;-6.134;2023-04-28T12:06:59;39.45;;;23.35;;
38683;SDS011;24910;53.248;-6.134;2023-04-28T12:09:30;39.30;;;22.80;;
38683;SDS011;24910;53.248;-6.134;2023-04-28T12:12:00;39.83;;;22.52;;
38683;SDS011;24910;53.248;-6.134;2023-04-28T12:14:31;44.35;;;24.27;;
38683;SDS011;24910;53.248;-6.134;2023-04-28T12:17:23;39.92;;;23.83;;
38683;SDS011;24910;53.248;-6.134;2023-04-28T12:19:55;38.75;;;21.55;;
38683;SDS011;24910;53.248;-6.134;2023-04-28T12:22:27;39.38;;;22.95;;
38683;SDS011;24910;53.248;-6.134;2023-04-28T12:25:04;36.70;;;22.60;;
38683;SDS011;24910;53.248;-6.134;2023-04-28T12:27:34;38.97;;;22.73;;
38683;SDS011;24910;53.248;-6.134;2023-04-28T12:32:52;34.47;;;22.30;;
38683;SDS011;24910;53.248;-6.134;2023-04-28T12:35:23;35.38;;;22.05;;
38683;SDS011;24910;53.248;-6.134;2023-04-28T12:37:54;38.00;;;22.23;;
38683;SDS011;24910;53.248;-6.134;2023-04-28T12:40:25;38.13;;;22.48;;
38683;SDS011;24910;53.248;-6.134;2023-04-28T12:42:54;37.17;;;22.10;;
38683;SDS011;24910;53.248;-6.134;2023-04-28T12:45:24;37.58;;;20.92;;
38683;SDS011;24910;53.248;-6.134;2023-04-28T12:47:54;39.20;;;23.08;;
38683;SDS011;24910;53.248;-6.134;2023-04-28T12:50:26;34.17;;;22.17;;
38683;SDS011;24910;53.248;-6.134;2023-04-28T12:52:58;37.60;;;21.63;;
38683;SDS011;24910;53.248;-6.134;2023-04-28T12:55:27;36.15;;;21.77;;
38683;SDS011;24910;53.248;-6.134;2023-04-28T12:57:56;37.40;;;22.50;;
38683;SDS011;24910;53.248;-6.134;2023-04-28T13:00:26;43.13;;;24.33;;
38683;SDS011;24910;53.248;-6.134;2023-04-28T13:02:57;36.90;;;22.25;;
38683;SDS011;24910;53.248;-6.134;2023-04-28T13:07:58;35.72;;;21.15;;
38683;SDS011;24910;53.248;-6.134;2023-04-28T13:10:29;35.88;;;22.08;;
38683;SDS011;24910;53.248;-6.134;2023-04-28T13:12:58;34.28;;;21.40;;
38683;SDS011;24910;53.248;-6.134;2023-04-28T13:15:28;37.95;;;21.88;;
38683;SDS011;24910;53.248;-6.134;2023-04-28T13:18:04;35.33;;;21.42;;
38683;SDS011;24910;53.248;-6.134;2023-04-28T13:20:37;34.08;;;19.90;;
38683;SDS011;24910;53.248;-6.134;2023-04-28T13:23:07;39.35;;;23.45;;
38683;SDS011;24910;53.248;-6.134;2023-04-28T13:25:36;40.42;;;24.48;;
38683;SDS011;24910;53.248;-6.134;2023-04-28T13:28:05;36.20;;;21.80;;
38683;SDS011;24910;53.248;-6.134;2023-04-28T13:30:34;39.75;;;23.52;;
38683;SDS011;24910;53.248;-6.134;2023-04-28T13:33:03;37.45;;;22.55;;
38683;SDS011;24910;53.248;-6.134;2023-04-28T13:35:32;38.47;;;22.60;;
38683;SDS011;24910;53.248;-6.134;2023-04-28T13:38:03;39.40;;;23.23;;
38683;SDS011;24910;53.248;-6.134;2023-04-28T13:40:33;41.40;;;24.58;;
38683;SDS011;24910;53.248;-6.134;2023-04-28T13:43:02;41.10;;;25.23;;
38683;SDS011;24910;53.248;-6.134;2023-04-28T13:45:31;42.88;;;24.40;;
38683;SDS011;24910;53.248;-6.134;2023-04-28T13:48:00;39.72;;;24.10;;
38683;SDS011;24910;53.248;-6.134;2023-04-28T13:50:30;39.75;;;24.13;;
38683;SDS011;24910;53.248;-6.134;2023-04-28T13:52:59;42.10;;;23.63;;
38683;SDS011;24910;53.248;-6.134;2023-04-28T13:55:32;36.55;;;22.20;;
38683;SDS011;24910;53.248;-6.134;2023-04-28T13:58:01;34.90;;;21.13;;
38683;SDS011;24910;53.248;-6.134;2023-04-28T14:00:32;30.83;;;18.47;;
38683;SDS011;24910;53.248;-6.134;2023-04-28T14:05:32;30.17;;;17.23;;
38683;SDS011;24910;53.248;-6.134;2023-04-28T14:08:14;32.75;;;18.10;;
38683;SDS011;24910;53.248;-6.134;2023-04-28T14:10:48;35.58;;;21.83;;
38683;SDS011;24910;53.248;-6.134;2023-04-28T14:13:18;34.67;;;20.17;;
38683;SDS011;24910;53.248;-6.134;2023-04-28T14:15:47;35.50;;;20.92;;
38683;SDS011;24910;53.248;-6.134;2023-04-28T14:18:24;38.45;;;20.92;;
38683;SDS011;24910;53.248;-6.134;2023-04-28T14:20:54;31.60;;;20.10;;
38683;SDS011;24910;53.248;-6.134;2023-04-28T14:23:23;33.97;;;19.92;;
38683;SDS011;24910;53.248;-6.134;2023-04-28T14:25:54;34.58;;;22.17;;
38683;SDS011;24910;53.248;-6.134;2023-04-28T14:30:54;29.00;;;17.38;;
38683;SDS011;24910;53.248;-6.134;2023-04-28T14:33:23;26.63;;;16.27;;
38683;SDS011;24910;53.248;-6.134;2023-04-28T14:35:53;32.55;;;17.48;;
38683;SDS011;24910;53.248;-6.134;2023-04-28T14:38:22;33.67;;;18.70;;
38683;SDS011;24910;53.248;-6.134;2023-04-28T14:40:51;33.20;;;19.88;;
38683;SDS011;24910;53.248;-6.134;2023-04-28T14:43:22;34.93;;;20.87;;
38683;SDS011;24910;53.248;-6.134;2023-04-28T14:45:51;34.42;;;20.50;;
38683;SDS011;24910;53.248;-6.134;2023-04-28T14:48:21;35.92;;;21.45;;
38683;SDS011;24910;53.248;-6.134;2023-04-28T14:50:50;34.20;;;20.92;;
38683;SDS011;24910;53.248;-6.134;2023-04-28T14:53:19;32.25;;;19.88;;
38683;SDS011;24910;53.248;-6.134;2023-04-28T14:55:49;37.80;;;20.52;;
38683;SDS011;24910;53.248;-6.134;2023-04-28T14:58:22;34.50;;;20.23;;
38683;SDS011;24910;53.248;-6.134;2023-04-28T15:00:51;32.63;;;20.05;;